Latest Coastal Weather Observations for Mackay

IDQ60701

Issued at 5:02 pm EST Friday 20 October 2017 (issued every 10 minutes, with the page automatically refreshed every 10 minutes)

About coastal observations | Map of coastal stations | Coastal observations for QLD | Marine services | Other Formats
Station Details ID: 033119 Name: MACKAY M.O Lat: -21.12 Lon: 149.22 Height: 30.26 m
Data from the previous 72 hours. | See also: Recent months at Mackay
Date/Time
EST
Temp
°C
Wind Pressure Rain since
9am
mm
Weather Cloud Vis
km
Sea
Height
m
Swell
Dir  Spd
kts
Gust
kts
hPa Trend Height
m
Period
s
Dir
20/05:00pm 24.5 ESE 8 13 1016.0 - 0.0 - Partly cloudy - - - - -
20/04:30pm 25.3 E 9 14 1015.8 - 0.0 - Partly cloudy - - - - -
20/04:00pm 25.1 ESE 8 11 1015.7 - 0.0 - Partly cloudy - - - - -
20/03:30pm 25.9 ESE 8 12 1015.6 - 0.0 - Partly cloudy - - - - -
20/03:00pm 26.4 SE 9 13 1015.9 R 0.0 - - - - - - -
20/02:30pm 26.9 SE 9 16 1016.3 - 0.0 - Partly cloudy - - - - -
20/02:00pm 26.7 ESE 9 14 1016.5 - 0.0 - Partly cloudy - - - - -
20/01:30pm 26.6 ESE 7 14 1016.9 - 0.0 - Partly cloudy - - - - -
20/01:00pm 26.6 ESE 8 13 1017.2 - 0.0 - Partly cloudy - - - - -
20/12:30pm 26.7 ESE 9 13 1017.5 - 0.0 - Partly cloudy - - - - -
20/12:00pm 26.4 ESE 9 17 1017.7 R 0.0 - Mostly clear - - - - -
20/11:30am 26.0 ESE 9 15 1017.9 - 0.0 - Partly cloudy - - - - -
20/11:00am 25.4 ESE 9 16 1018.2 - 0.0 - Partly cloudy - - - - -
20/10:30am 26.2 ESE 9 14 1018.3 - 0.0 - Partly cloudy - - - - -
20/10:00am 26.1 ESE 10 15 1018.5 - 0.0 - Partly cloudy - - - - -
20/09:30am 25.4 ESE 9 14 1018.5 - 0.0 - Partly cloudy - - - - -
20/09:00am 24.7 ESE 9 14 1018.6 F 3.6 - Cloudy - - - - -
20/08:30am 24.6 ESE 8 13 1018.5 - 3.6 - Partly cloudy - - - - -
20/08:00am 23.3 ESE 9 15 1018.5 - 3.6 - Partly cloudy - - - - -
20/07:30am 23.9 SE 8 13 1018.4 - 3.6 - Partly cloudy - - - - -
20/07:00am 23.1 SSE 9 12 1018.2 - 3.6 - Partly cloudy - - - - -
20/06:30am 21.9 SSE 9 15 1018.1 - 3.6 - Partly cloudy - - - - -
20/06:00am 22.4 SE 10 18 1017.8 F 3.6 - Partly cloudy - - - - -
20/05:30am 22.4 ESE 10 16 1017.6 - 3.6 - Partly cloudy - - - - -
20/05:00am 23.2 SE 8 14 1017.2 - 3.6 - Partly cloudy - - - - -
20/04:30am 22.8 SE 5 10 1017.0 - 3.6 - Partly cloudy - - - - -
20/04:00am 23.0 ESE 7 11 1017.0 - 3.6 - Partly cloudy - - - - -
20/03:30am 22.9 ESE 13 22 1016.9 - 3.6 - Partly cloudy - - - - -
20/03:00am 23.8 SE 10 16 1016.9 - 3.6 - Cloudy - - - - -
20/02:30am 23.9 SE 10 16 1016.9 - 3.6 - Partly cloudy - - - - -
20/02:00am 24.0 ESE 9 16 1017.0 - 3.6 - Partly cloudy - - - - -
20/01:30am 23.5 E 9 13 1017.5 - 3.6 - Partly cloudy - - - - -
20/01:00am 23.8 ESE 11 19 1017.8 - 3.6 - Partly cloudy - - - - -
20/12:30am 22.9 SE 11 18 1018.2 - 3.6 - Partly cloudy - - - - -
20/12:00am 22.8 SE 13 22 1018.4 - 3.6 Recent precip. Cloudy - - - - -
 
Date/Time
EST
Temp
°C
Wind Pressure Rain since
9am
mm
Weather Cloud Vis
km
Sea
Height
m
Swell
Dir  Spd
kts
Gust
kts
hPa Trend Height
m
Period
s
Dir
19/11:30pm 22.9 ESE 12 20 1018.6 - 3.6 - Partly cloudy - - - - -
19/11:00pm 23.6 ESE 10 17 1019.0 - 3.4 - Partly cloudy - - - - -
19/10:30pm 24.1 ESE 9 16 1019.3 - 3.0 - Partly cloudy - - - - -
19/10:00pm 23.3 SE 10 17 1019.5 - 3.0 - Partly cloudy - - - - -
19/09:30pm 23.7 SE 13 23 1019.2 - 3.0 - Partly cloudy - - - - -
19/09:00pm 24.1 ESE 13 20 1018.8 F 3.0 - Cloudy - - - - -
19/08:30pm 24.3 ESE 11 20 1018.4 - 3.0 - Partly cloudy - - - - -
19/08:00pm 24.4 E 12 21 1018.5 - 3.0 - Partly cloudy - - - - -
19/07:30pm 24.3 ESE 11 21 1018.2 - 3.0 - Partly cloudy - - - - -
19/07:00pm 24.3 ESE 12 19 1017.9 - 2.8 - Partly cloudy - - - - -
19/06:30pm 23.6 E 14 23 1017.7 - 2.8 - Partly cloudy - - - - -
19/06:06pm 23.0 E 15 25 1017.4 - 2.4 - Partly cloudy - - - - -
19/06:00pm 22.8 E 18 26 1017.4 R 2.2 Rain Cloudy - - - - -
19/05:30pm 23.2 E 13 22 1017.1 - 1.0 - Partly cloudy - - - - -
19/05:00pm 23.6 ESE 12 20 1017.0 - 0.6 - Partly cloudy - - - - -
19/04:30pm 24.9 ESE 11 20 1016.7 - 0.4 - Partly cloudy - - - - -
19/04:00pm 25.5 ESE 11 19 1016.5 - 0.4 - Partly cloudy - - - - -
19/03:30pm 24.9 E 15 24 1016.4 - 0.4 - Partly cloudy - - - - -
19/03:00pm 25.2 ESE 12 24 1016.3 R 0.4 - Cloudy - - - - -
19/02:30pm 25.3 ESE 12 18 1016.5 - 0.4 - Partly cloudy - - - - -
19/02:08pm 25.4 E 15 26 1016.7 - 0.4 - Partly cloudy - - - - -
19/02:00pm 25.3 ESE 11 20 1016.7 - 0.4 - Partly cloudy - - - - -
19/01:30pm 26.0 ESE 12 21 1016.8 - 0.4 - Partly cloudy - - - - -
19/01:00pm 25.6 ESE 13 22 1017.2 - 0.4 - Partly cloudy - - - - -
19/12:30pm 26.6 ESE 13 19 1017.6 - 0.4 - Partly cloudy - - - - -
19/12:00pm 26.1 ESE 12 21 1017.7 R 0.2 - Partly cloudy - - - - -
19/11:30am 25.3 E 14 22 1017.8 - 0.2 - Partly cloudy - - - - -
19/11:00am 24.6 ESE 9 16 1017.9 - 0.2 - Partly cloudy - - - - -
19/10:30am 26.7 E 15 25 1017.8 - 0.2 - Partly cloudy - - - - -
19/10:00am 25.2 E 15 25 1017.8 - 0.2 - Partly cloudy - - - - -
19/09:36am 25.9 E 15 26 1017.9 - 0.0 - Partly cloudy - - - - -
19/09:30am 26.1 E 15 23 1017.9 - 0.0 - Partly cloudy - - - - -
19/09:00am 25.0 E 16 25 1018.2 R 1.4 - Cloudy - - - - -
19/08:53am 24.9 E 15 25 1018.0 - 1.4 - Partly cloudy - - - - -
19/08:30am 25.7 E 16 23 1017.7 - 1.4 - Partly cloudy - - - - -
19/08:00am 26.0 E 15 22 1017.3 - 1.4 - Partly cloudy - - - - -
19/07:45am 25.2 E 15 25 1017.0 - 1.4 - Partly cloudy - - - - -
19/07:30am 25.6 E 14 21 1016.8 - 1.4 - Partly cloudy - - - - -
19/07:00am 25.4 E 14 22 1016.4 - 1.4 - Partly cloudy - - - - -
19/06:30am 24.9 E 14 23 1015.8 - 1.4 - Partly cloudy - - - - -
19/06:00am 24.9 E 15 23 1015.5 F 1.4 - Cloudy - - - - -
19/05:30am 24.8 E 16 22 1015.6 - 1.4 - Partly cloudy - - - - -
19/05:00am 24.9 E 16 22 1015.7 - 1.4 - Partly cloudy - - - - -
19/04:30am 24.8 E 14 20 1015.5 - 1.4 - Partly cloudy - - - - -
19/04:00am 24.8 E 16 23 1015.2 - 1.4 - Partly cloudy - - - - -
19/03:30am 24.9 E 15 21 1015.0 - 1.4 - Partly cloudy - - - - -
19/03:16am 24.9 E 15 25 1015.0 - 1.4 - Partly cloudy - - - - -
19/03:00am 24.8 E 16 23 1014.9 - 1.4 - Cloudy - - - - -
19/02:30am 24.3 E 15 23 1015.0 - 1.4 - Partly cloudy - - - - -
19/02:00am 24.4 ENE 12 22 1015.1 - 1.4 - Partly cloudy - - - - -
19/01:30am 24.5 E 15 24 1015.5 - 1.2 - Partly cloudy - - - - -
19/01:13am 24.5 ENE 12 20 1015.8 - 1.2 - Partly cloudy - - - - -
19/01:00am 24.4 ENE 15 23 1016.0 - 1.2 - Partly cloudy - - - - -
19/12:52am 24.2 ENE 15 25 1016.0 - 1.2 - Partly cloudy - - - - -
19/12:30am 24.5 E 15 22 1016.4 - 1.2 - Partly cloudy - - - - -
19/12:00am 24.4 E 16 24 1016.5 - 1.2 - Cloudy - - - - -
 
Date/Time
EST
Temp
°C
Wind Pressure Rain since
9am
mm
Weather Cloud Vis
km
Sea
Height
m
Swell
Dir  Spd
kts
Gust
kts
hPa Trend Height
m
Period
s
Dir
18/11:34pm 24.3 ENE 14 21 1016.9 - 1.2 - Partly cloudy - - - - -
18/11:30pm 24.3 ENE 13 23 1016.9 - 1.2 - Partly cloudy - - - - -
18/11:00pm 24.2 ENE 14 22 1017.0 - 1.2 - Partly cloudy - - - - -
18/10:30pm 23.6 ENE 12 21 1017.0 - 1.2 - Partly cloudy - - - - -
18/10:19pm 23.4 NE 11 18 1017.0 - 1.2 - Partly cloudy - - - - -
18/10:02pm 23.8 ENE 13 21 1016.9 - 1.2 - Partly cloudy - - - - -
18/10:00pm 23.8 ENE 13 22 1016.9 - 1.2 - Partly cloudy - - - - -
18/09:42pm 23.7 ENE 16 24 1016.6 - 1.2 - Partly cloudy - - - - -
18/09:30pm 23.8 ENE 15 23 1016.5 - 1.0 - Partly cloudy - - - - -
18/09:02pm 24.4 ENE 14 25 1016.4 - 1.0 - Partly cloudy - - - - -
18/09:00pm 24.5 ENE 15 25 1016.4 S 1.0 Recent precip. Cloudy - - - - -
18/08:43pm 24.3 ENE 16 26 1016.3 - 1.0 - Partly cloudy - - - - -
18/08:30pm 24.2 ENE 15 24 1016.2 - 1.0 - Partly cloudy - - - - -
18/08:00pm 24.5 ENE 15 26 1015.8 - 0.6 - Partly cloudy - - - - -
18/07:58pm 24.9 ENE 16 26 1015.8 - 0.6 - Partly cloudy - - - - -
18/07:50pm 24.9 E 14 23 1015.7 - 0.6 - Partly cloudy - - - - -
18/07:38pm 24.8 ENE 13 19 1015.7 - 0.6 - Partly cloudy - - - - -
18/07:32pm 24.8 ENE 14 21 1015.6 - 0.6 - Partly cloudy - - - - -
18/07:30pm 24.8 ENE 14 21 1015.6 - 0.6 - Partly cloudy - - - - -
18/07:21pm 24.9 E 16 22 1015.4 - 0.6 - Partly cloudy - - - - -
18/07:05pm 24.8 ENE 15 21 1015.2 - 0.6 - Partly cloudy - - - - -
18/07:00pm 24.7 ENE 15 23 1015.2 - 0.6 - Partly cloudy - - - - -
18/06:55pm 24.7 ENE 15 23 1015.2 - 0.6 - Partly cloudy - - - - -
18/06:30pm 24.6 E 14 21 1014.9 - 0.6 - Partly cloudy - - - - -
18/06:00pm 25.1 E 15 22 1014.7 R 0.2 - Cloudy - - - - -
18/05:47pm 25.1 E 15 20 1014.6 - 0.2 - Partly cloudy - - - - -
18/05:34pm 25.4 E 14 21 1014.5 - 0.2 - Partly cloudy - - - - -
18/05:30pm 25.4 E 15 21 1014.4 - 0.2 - Partly cloudy - - - - -
18/05:11pm 25.5 ENE 13 19 1014.0 - 0.2 - Partly cloudy - - - - -
18/05:00pm 25.5 E 14 20 1013.7 - 0.2 - Partly cloudy - - - - -
18/04:44pm 25.6 E 13 19 1013.4 - 0.2 - Partly cloudy - - - - -
18/04:30pm 25.6 E 14 21 1013.3 - 0.2 - Partly cloudy - - - - -
18/04:07pm 25.8 E 15 21 1012.9 - 0.2 - Partly cloudy - - - - -
18/04:00pm 26.1 E 14 20 1012.9 - 0.2 - Partly cloudy - - - - -
18/03:36pm 26.1 E 13 18 1012.9 - 0.2 - Partly cloudy - - - - -
18/03:30pm 26.2 E 12 18 1012.9 - 0.2 - Partly cloudy - - - - -
18/03:00pm 26.7 ENE 10 16 1013.2 R 0.2 - Partly cloudy - - - - -
18/02:30pm 26.7 ENE 7 16 1013.5 - 0.2 - Partly cloudy - - - - -
18/02:00pm 26.8 NE 9 14 1013.9 - 0.2 - Partly cloudy - - - - -
18/01:30pm 28.1 NE 9 14 1014.1 - 0.2 - Partly cloudy - - - - -
18/01:00pm 26.4 NE 8 14 1014.5 - 0.2 - Partly cloudy - - - - -
18/12:30pm 25.9 NE 7 13 1015.0 - 0.2 - Partly cloudy - - - - -
18/12:00pm 26.2 NE 9 16 1015.0 R 0.2 - Cloudy - - - - -
18/11:30am 26.5 NE 9 18 1015.0 - 0.2 - Partly cloudy - - - - -
18/11:00am 25.3 NNE 10 18 1015.1 - 0.2 - Partly cloudy - - - - -
18/10:30am 24.3 NE 9 14 1015.2 - 0.2 - Partly cloudy - - - - -
18/10:00am 25.3 ENE 10 17 1015.4 - 0.0 - Partly cloudy - - - - -
18/09:30am 24.6 NE 8 16 1015.5 - 0.0 - Partly cloudy - - - - -
18/09:00am 24.6 NE 7 13 1015.6 R 14.6 - Cloudy - - - - -
18/08:30am 24.1 NE 8 17 1014.9 - 14.6 - Partly cloudy - - - - -
18/08:00am 23.5 NE 8 20 1014.1 - 14.6 - Partly cloudy - - - - -
18/07:30am 22.4 NE 8 15 1013.5 - 14.6 - Partly cloudy - - - - -
18/07:28am 22.6 NE 8 15 1013.5 - 14.6 - Partly cloudy - - - - -
18/07:05am 22.9 NNE 8 13 1013.3 - 14.4 - Partly cloudy - - - - -
18/07:00am 22.8 NE 8 15 1013.3 - 14.2 - Partly cloudy - - - - -
18/06:30am 22.4 NNE 9 15 1013.1 - 13.4 - Partly cloudy - - - - -
18/06:00am 22.9 NE 5 10 1012.8 R 12.6 - Cloudy - - - - -
18/05:40am 22.7 ENE 6 10 1012.5 - 12.6 - Partly cloudy - - - - -
18/05:30am 22.7 NNE 5 9 1012.3 - 12.6 - Partly cloudy - - - - -
18/05:02am 22.5 NE 5 9 1011.9 - 12.6 - Partly cloudy - - - - -
18/05:00am 22.5 NE 5 9 1011.9 - 12.6 - Partly cloudy - - - - -
18/04:30am 22.1 NE 5 7 1011.7 - 12.4 - Partly cloudy - - - - -
18/04:12am 22.1 NNE 6 10 1011.5 - 12.4 - Partly cloudy - - - - -
18/04:00am 22.2 NE 6 11 1011.5 - 12.2 - Partly cloudy - - - - -
18/03:30am 22.7 ENE 5 8 1011.4 - 11.8 - Partly cloudy - - - - -
18/03:28am 22.7 NE 5 8 1011.4 - 11.8 - Partly cloudy - - - - -
18/03:00am 22.7 ENE 7 12 1011.3 - 11.6 Recent precip. Cloudy - - - - -
18/02:30am 22.5 E 6 9 1011.3 - 11.6 - Partly cloudy - - - - -
18/02:00am 21.6 NNE 2 6 1011.4 - 11.4 - Partly cloudy - - - - -
18/01:30am 21.7 NE 3 6 1011.7 - 11.4 - Partly cloudy - - - - -
18/01:00am 22.0 NNE 6 10 1012.4 - 11.0 - Partly cloudy - - - - -
18/12:57am 22.0 NNE 5 8 1012.4 - 11.0 - Partly cloudy - - - - -
18/12:30am 22.0 NNE 9 15 1012.5 - 10.6 - Partly cloudy - - - - -
18/12:00am 22.6 N 4 7 1012.8 - 7.8 Rain Cloudy - - - - -
 
Date/Time
EST
Temp
°C
Wind Pressure Rain since
9am
mm
Weather Cloud Vis
km
Sea
Height
m
Swell
Dir  Spd
kts
Gust
kts
hPa Trend Height
m
Period
s
Dir
17/11:40pm 22.6 NNE 4 7 1013.2 - 6.8 - Partly cloudy - - - - -
17/11:30pm 22.4 NE 5 8 1013.3 - 6.6 - Partly cloudy - - - - -
17/11:00pm 22.1 NNE 7 11 1013.2 - 6.4 - Partly cloudy - - - - -
17/10:30pm 22.9 ENE 8 13 1013.6 - 6.0 - Partly cloudy - - - - -
17/10:17pm 23.0 ENE 9 14 1013.7 - 5.8 - Partly cloudy - - - - -
17/10:00pm 22.9 ENE 7 10 1013.2 - 5.8 - Partly cloudy - - - - -
17/09:30pm 22.6 NE 5 8 1012.8 - 5.6 - Partly cloudy - - - - -
17/09:00pm 22.8 NE 7 11 1012.8 F 5.6 Recent precip. Cloudy - - - - -
17/08:47pm 22.7 E 8 11 1012.6 - 5.6 - Partly cloudy - - - - -
17/08:30pm 22.7 ESE 7 13 1012.5 - 5.6 - Partly cloudy - - - - -
17/08:00pm 22.1 ESE 8 14 1012.8 - 5.4 - Partly cloudy - - - - -
17/07:30pm 22.2 SE 6 8 1012.0 - 4.2 - Partly cloudy - - - - -
17/07:00pm 21.9 E 5 6 1012.2 - 4.0 - Cloudy - - - - -
17/06:30pm 21.8 ENE 6 9 1012.1 - 3.4 - Partly cloudy - - - - -
17/06:00pm 22.2 NE 6 11 1012.2 R 2.4 - Cloudy - - - - -
17/05:30pm 24.5 ESE 6 9 1011.9 - 2.4 - Partly cloudy - - - - -

Other Formats:

Comma delimited format used in spreadsheet applications
http://www.bom.gov.au/fwo/IDQ60701/IDQ60701.94367.axf

JavaScript Object Notation format (JSON) in row-major order
http://www.bom.gov.au/fwo/IDQ60701/IDQ60701.94367.json